createdAt,value
2024-05-09T00:00:41.243Z,2.33
2024-05-09T00:03:16.929Z,2.53
2024-05-09T00:05:44.626Z,2.90
2024-05-09T00:08:41.120Z,2.83
2024-05-09T00:11:08.799Z,2.50
2024-05-09T00:13:35.781Z,1.95
2024-05-09T00:16:02.883Z,2.25
2024-05-09T00:18:30.132Z,2.40
2024-05-09T00:20:57.150Z,2.25
2024-05-09T00:23:39.556Z,3.13
2024-05-09T00:26:06.605Z,2.33
2024-05-09T00:28:33.637Z,2.33
2024-05-09T00:31:00.578Z,2.53
2024-05-09T00:33:27.639Z,2.28
2024-05-09T00:35:54.617Z,2.47
2024-05-09T00:38:21.636Z,2.15
2024-05-09T00:40:48.550Z,2.45
2024-05-09T00:43:15.737Z,2.15
2024-05-09T00:45:44.210Z,2.33
2024-05-09T00:48:20.784Z,2.20
2024-05-09T00:50:49.236Z,2.00
2024-05-09T00:53:18.335Z,2.25
2024-05-09T00:55:47.679Z,2.40
2024-05-09T00:58:16.877Z,2.45
2024-05-09T01:00:44.587Z,2.58
2024-05-09T01:03:13.574Z,2.20
2024-05-09T01:05:42.675Z,2.03
2024-05-09T01:08:10.995Z,2.40
2024-05-09T01:10:38.531Z,2.22
2024-05-09T01:13:06.583Z,2.40
2024-05-09T01:15:35.532Z,2.47
2024-05-09T01:18:07.788Z,2.22
2024-05-09T01:23:06.861Z,2.50
2024-05-09T01:25:33.918Z,2.17
2024-05-09T01:28:00.984Z,2.45
2024-05-09T01:30:34.115Z,2.40
2024-05-09T01:33:04.824Z,2.60
2024-05-09T01:35:32.449Z,2.80
2024-05-09T01:37:59.416Z,2.63
2024-05-09T01:40:36.188Z,2.40
2024-05-09T01:43:06.403Z,2.10
2024-05-09T01:45:33.483Z,2.58
2024-05-09T01:48:00.745Z,2.17
2024-05-09T01:50:37.549Z,2.40
2024-05-09T01:53:12.609Z,2.63
2024-05-09T01:55:40.161Z,2.30
2024-05-09T01:58:07.678Z,2.45
2024-05-09T02:00:40.114Z,2.72
2024-05-09T02:03:16.251Z,2.67
2024-05-09T02:05:46.590Z,2.90
2024-05-09T02:08:19.185Z,2.50
2024-05-09T02:10:48.037Z,2.95
2024-05-09T02:13:16.552Z,2.92
2024-05-09T02:15:43.876Z,2.83
2024-05-09T02:18:11.719Z,2.72
2024-05-09T02:20:40.906Z,2.58
2024-05-09T02:23:08.891Z,2.70
2024-05-09T02:25:35.879Z,2.70
2024-05-09T02:28:02.931Z,2.50
2024-05-09T02:30:38.240Z,2.67
2024-05-09T02:33:12.963Z,2.50
2024-05-09T02:35:41.941Z,2.75
2024-05-09T02:38:09.732Z,2.70
2024-05-09T02:40:38.969Z,2.60
2024-05-09T02:43:08.560Z,2.95
2024-05-09T02:45:40.434Z,2.63
2024-05-09T02:48:10.941Z,2.42
2024-05-09T02:50:40.731Z,2.60
2024-05-09T02:53:09.198Z,2.90
2024-05-09T02:55:37.064Z,2.60
2024-05-09T02:58:04.319Z,2.50
2024-05-09T03:00:38.458Z,2.63
2024-05-09T03:03:09.709Z,2.58
2024-05-09T03:05:38.667Z,2.70
2024-05-09T03:08:09.069Z,2.90
2024-05-09T03:10:38.398Z,2.70
2024-05-09T03:13:12.935Z,2.78
2024-05-09T03:15:41.192Z,2.75
2024-05-09T03:18:08.972Z,2.75
2024-05-09T03:20:37.113Z,2.40
2024-05-09T03:23:06.440Z,2.72
2024-05-09T03:25:33.831Z,3.17
2024-05-09T03:28:00.966Z,3.05
2024-05-09T03:30:38.942Z,3.28
2024-05-09T03:33:15.928Z,2.70
2024-05-09T03:35:44.283Z,3.15
2024-05-09T03:38:11.456Z,2.80
2024-05-09T03:40:47.632Z,2.92
2024-05-09T03:43:15.554Z,3.30
2024-05-09T03:45:43.472Z,3.13
2024-05-09T03:48:10.662Z,3.20
2024-05-09T03:50:38.183Z,3.25
2024-05-09T03:53:05.683Z,2.75
2024-05-09T03:55:32.715Z,2.80
2024-05-09T03:57:59.793Z,2.22
2024-05-09T04:00:35.144Z,2.80
2024-05-09T04:03:08.569Z,3.10
2024-05-09T04:05:39.824Z,2.78
2024-05-09T04:08:07.758Z,2.58
2024-05-09T04:10:35.461Z,2.88
2024-05-09T04:13:04.080Z,2.70
2024-05-09T04:15:31.752Z,3.13
2024-05-09T04:17:59.104Z,2.55
2024-05-09T04:22:56.523Z,2.95
2024-05-09T04:25:23.465Z,2.60
2024-05-09T04:27:50.609Z,2.85
2024-05-09T04:30:25.733Z,2.97
2024-05-09T04:33:01.036Z,2.33
2024-05-09T04:35:28.206Z,2.50
2024-05-09T04:37:55.243Z,2.42
2024-05-09T04:40:28.566Z,2.25
2024-05-09T04:43:00.700Z,2.33
2024-05-09T04:45:27.650Z,2.38
2024-05-09T04:47:55.086Z,2.60
2024-05-09T04:50:30.045Z,2.60
2024-05-09T04:53:03.388Z,3.03
2024-05-09T04:55:30.608Z,2.25
2024-05-09T04:57:57.684Z,2.40
2024-05-09T05:00:34.743Z,2.60
2024-05-09T05:03:28.958Z,2.55
2024-05-09T05:05:56.311Z,2.47
2024-05-09T05:08:23.383Z,2.60
2024-05-09T05:10:50.444Z,2.13
2024-05-09T05:13:20.761Z,2.70
2024-05-09T05:15:51.024Z,13.55
2024-05-09T05:18:18.791Z,13.30
2024-05-09T05:20:46.145Z,6.10
2024-05-09T05:23:15.296Z,3.90
2024-05-09T05:25:43.470Z,3.30
2024-05-09T05:28:11.054Z,3.05
2024-05-09T05:30:38.842Z,3.65
2024-05-09T05:33:07.162Z,3.28
2024-05-09T05:35:35.375Z,3.50
2024-05-09T05:38:03.278Z,3.75
2024-05-09T05:40:37.074Z,4.28
2024-05-09T05:43:10.672Z,4.63
2024-05-09T05:45:38.942Z,4.30
2024-05-09T05:48:07.585Z,4.68
2024-05-09T05:50:37.497Z,4.57
2024-05-09T05:53:07.761Z,5.35
2024-05-09T05:55:36.068Z,5.70
2024-05-09T05:58:03.336Z,5.07
2024-05-09T06:00:37.664Z,4.97
2024-05-09T06:03:07.695Z,5.70
2024-05-09T06:05:36.295Z,5.88
2024-05-09T06:08:03.251Z,6.15
2024-05-09T06:10:37.632Z,5.82
2024-05-09T06:13:07.226Z,5.72
2024-05-09T06:15:34.218Z,6.20
2024-05-09T06:18:01.711Z,6.28
2024-05-09T06:20:35.734Z,7.15
2024-05-09T06:23:09.709Z,7.03
2024-05-09T06:25:37.886Z,6.10
2024-05-09T06:28:05.336Z,6.50
2024-05-09T06:30:39.406Z,5.90
2024-05-09T06:33:11.531Z,6.90
2024-05-09T06:35:40.709Z,6.63
2024-05-09T06:38:11.081Z,6.60
2024-05-09T06:40:42.532Z,6.60
2024-05-09T06:43:19.002Z,6.70
2024-05-09T06:45:54.143Z,6.40
2024-05-09T06:48:22.941Z,7.25
2024-05-09T06:50:50.583Z,8.38
2024-05-09T06:53:21.339Z,7.85
2024-05-09T06:55:48.464Z,7.88
2024-05-09T06:58:16.203Z,7.95
2024-05-09T07:00:43.424Z,8.30
2024-05-09T07:03:13.421Z,8.07
2024-05-09T07:05:43.063Z,7.28
2024-05-09T07:08:10.516Z,7.30
2024-05-09T07:10:37.868Z,8.32
2024-05-09T07:13:09.165Z,8.30
2024-05-09T07:15:36.074Z,8.13
2024-05-09T07:18:16.667Z,7.97
2024-05-09T07:20:45.724Z,8.25
2024-05-09T07:23:13.261Z,7.88
2024-05-09T07:25:43.458Z,8.18
2024-05-09T07:28:17.822Z,6.65
2024-05-09T07:30:45.350Z,8.07
2024-05-09T07:33:21.219Z,8.80
2024-05-09T07:35:49.852Z,7.53
2024-05-09T07:38:16.883Z,7.88
2024-05-09T07:40:43.854Z,8.30
2024-05-09T07:43:14.678Z,7.82
2024-05-09T07:45:50.792Z,7.30
2024-05-09T07:53:46.957Z,7.90
2024-05-09T07:56:18.020Z,7.32
2024-05-09T07:58:45.975Z,7.75
2024-05-09T08:01:13.138Z,7.50
2024-05-09T08:03:40.235Z,7.43
2024-05-09T08:06:07.252Z,7.15
2024-05-09T08:08:34.186Z,7.78
2024-05-09T08:11:02.919Z,7.18
2024-05-09T08:13:29.924Z,7.57
2024-05-09T08:15:56.819Z,6.80
2024-05-09T08:18:23.963Z,6.80
2024-05-09T08:20:52.012Z,6.45
2024-05-09T08:23:19.007Z,5.72
2024-05-09T08:25:45.972Z,7.30
2024-05-09T08:28:13.152Z,6.82
2024-05-09T08:30:40.264Z,7.22
2024-05-09T08:33:07.917Z,6.95
2024-05-09T08:35:35.652Z,6.28
2024-05-09T08:38:04.093Z,6.50
2024-05-09T08:40:36.538Z,5.68
2024-05-09T08:43:11.011Z,6.47
2024-05-09T08:45:43.751Z,6.13
2024-05-09T08:48:14.532Z,6.50
2024-05-09T08:50:42.873Z,6.18
2024-05-09T08:53:10.790Z,5.13
2024-05-09T08:55:41.586Z,5.80
2024-05-09T08:58:18.187Z,5.47
2024-05-09T09:00:46.458Z,6.15
2024-05-09T09:03:24.811Z,5.70
2024-05-09T09:06:02.276Z,5.72
2024-05-09T09:08:29.262Z,5.13
2024-05-09T09:10:58.738Z,6.28
2024-05-09T09:13:26.347Z,5.70
2024-05-09T09:15:57.847Z,6.38
2024-05-09T09:18:27.044Z,5.90
2024-05-09T09:20:54.281Z,6.85
2024-05-09T09:23:21.239Z,5.70
2024-05-09T09:25:48.269Z,5.35
2024-05-09T09:28:15.533Z,6.07
2024-05-09T09:30:43.215Z,5.13
2024-05-09T09:33:11.667Z,4.93
2024-05-09T09:35:40.541Z,4.80
2024-05-09T09:38:10.628Z,4.78
2024-05-09T09:40:46.644Z,4.50
2024-05-09T09:43:20.744Z,4.50
2024-05-09T09:45:53.399Z,4.10
2024-05-09T09:48:22.388Z,4.20
2024-05-09T09:50:52.018Z,4.22
2024-05-09T09:53:19.844Z,3.97
2024-05-09T09:55:47.025Z,4.38
2024-05-09T09:58:18.365Z,3.60
2024-05-09T10:00:45.718Z,3.90
2024-05-09T10:03:13.002Z,4.55
2024-05-09T10:05:42.973Z,4.00
2024-05-09T10:08:13.008Z,3.90
2024-05-09T10:10:40.415Z,3.85
2024-05-09T10:13:08.704Z,3.50
2024-05-09T10:15:54.671Z,3.60
2024-05-09T10:18:28.101Z,3.72
2024-05-09T10:20:57.780Z,3.85
2024-05-09T10:23:27.739Z,3.33
2024-05-09T10:26:01.904Z,3.40
2024-05-09T10:28:33.349Z,3.60
2024-05-09T10:31:11.619Z,3.97
2024-05-09T10:33:40.502Z,3.33
2024-05-09T10:36:12.101Z,4.20
2024-05-09T10:38:40.962Z,3.50
2024-05-09T10:41:08.874Z,3.25
2024-05-09T10:43:39.062Z,3.15
2024-05-09T10:46:06.707Z,2.80
2024-05-09T10:48:34.297Z,2.97
2024-05-09T10:51:03.729Z,3.08
2024-05-09T10:53:41.572Z,3.00
2024-05-09T10:56:09.133Z,2.50
2024-05-09T10:58:36.412Z,2.65
2024-05-09T11:01:06.761Z,2.60
2024-05-09T11:03:35.512Z,2.13
2024-05-09T11:06:03.339Z,2.60
2024-05-09T11:08:32.642Z,2.15
2024-05-09T11:11:00.377Z,2.55
2024-05-09T11:13:38.264Z,2.47
2024-05-09T11:16:07.443Z,2.30
2024-05-09T11:18:38.163Z,2.30
2024-05-09T11:21:13.483Z,2.38
2024-05-09T11:23:41.303Z,2.30
2024-05-09T11:26:09.207Z,2.30
2024-05-09T11:28:36.298Z,2.42
2024-05-09T11:31:08.004Z,2.10
2024-05-09T11:33:41.400Z,2.90
2024-05-09T11:36:09.581Z,2.42
2024-05-09T11:38:36.892Z,2.33
2024-05-09T11:41:05.276Z,2.45
2024-05-09T11:43:33.146Z,2.20
2024-05-09T11:46:00.494Z,2.35
2024-05-09T11:48:27.943Z,2.35
2024-05-09T11:50:55.657Z,2.40
2024-05-09T11:53:22.708Z,2.03
2024-05-09T11:55:50.005Z,2.40
2024-05-09T11:58:18.338Z,2.30
2024-05-09T12:00:46.462Z,2.10
2024-05-09T12:03:13.995Z,2.33
2024-05-09T12:05:41.283Z,2.10
2024-05-09T12:08:08.389Z,2.38
2024-05-09T12:10:36.749Z,2.40
2024-05-09T12:13:05.963Z,2.00
2024-05-09T12:15:39.091Z,2.47
2024-05-09T12:18:08.086Z,1.90
2024-05-09T12:20:38.727Z,2.15
2024-05-09T12:23:09.340Z,2.20
2024-05-09T12:25:38.659Z,2.00
2024-05-09T12:28:08.899Z,1.92
2024-05-09T12:30:40.205Z,2.35
2024-05-09T12:33:13.044Z,2.20
2024-05-09T12:35:44.012Z,2.20
2024-05-09T12:38:14.316Z,2.40
2024-05-09T12:40:41.348Z,2.33
2024-05-09T12:43:09.957Z,2.63
2024-05-09T12:45:40.762Z,2.10
2024-05-09T12:48:12.274Z,2.20
2024-05-09T12:50:40.270Z,2.25
2024-05-09T12:53:07.459Z,2.28
2024-05-09T12:55:43.803Z,2.22
2024-05-09T12:58:16.962Z,2.22
2024-05-09T13:00:44.987Z,2.20
2024-05-09T13:03:12.230Z,2.10
2024-05-09T13:05:41.562Z,2.10
2024-05-09T13:08:09.213Z,2.22
2024-05-09T13:10:36.955Z,2.20
2024-05-09T13:13:04.291Z,1.90
2024-05-09T13:15:31.677Z,2.00
2024-05-09T13:18:02.174Z,1.98
2024-05-09T13:20:34.439Z,2.30
2024-05-09T13:23:09.493Z,1.92
2024-05-09T13:25:37.777Z,2.00
2024-05-09T13:28:08.588Z,2.20
2024-05-09T13:30:40.455Z,1.92
2024-05-09T13:33:13.864Z,1.85
2024-05-09T13:35:48.930Z,1.90
2024-05-09T13:38:21.886Z,1.95
2024-05-09T13:40:49.992Z,1.90
2024-05-09T13:43:18.187Z,1.98
2024-05-09T13:45:45.571Z,1.88
2024-05-09T13:48:12.888Z,2.17
2024-05-09T13:50:40.114Z,2.20
2024-05-09T13:53:08.294Z,2.00
2024-05-09T13:55:39.902Z,2.05
2024-05-09T13:58:08.552Z,1.90
2024-05-09T14:00:44.533Z,2.20
2024-05-09T14:03:16.496Z,2.10
2024-05-09T14:05:45.171Z,2.08
2024-05-09T14:08:13.667Z,1.90
2024-05-09T14:10:44.550Z,1.88
2024-05-09T14:13:12.651Z,2.17
2024-05-09T14:15:40.088Z,1.90
2024-05-09T14:18:13.533Z,2.00
2024-05-09T14:20:41.962Z,1.88
2024-05-09T14:23:08.908Z,1.70
2024-05-09T14:25:39.917Z,1.88
2024-05-09T14:28:09.872Z,1.95
2024-05-09T14:30:38.355Z,1.85
2024-05-09T14:33:07.789Z,2.00
2024-05-09T14:35:35.790Z,1.50
2024-05-09T14:38:03.215Z,1.80
2024-05-09T14:40:40.479Z,1.80
2024-05-09T14:43:12.248Z,1.80
2024-05-09T14:45:39.855Z,1.73
2024-05-09T14:48:07.585Z,1.60
2024-05-09T14:50:38.475Z,1.70
2024-05-09T14:53:08.088Z,1.55
2024-05-09T14:55:37.835Z,1.85
2024-05-09T14:58:07.217Z,1.92
2024-05-09T15:00:42.403Z,1.65
2024-05-09T15:03:12.232Z,1.80
2024-05-09T15:05:40.378Z,1.58
2024-05-09T15:08:08.689Z,1.60
2024-05-09T15:10:37.031Z,1.75
2024-05-09T15:13:10.428Z,1.80
2024-05-09T15:15:39.409Z,2.00
2024-05-09T15:18:07.045Z,1.58
2024-05-09T15:20:37.004Z,1.55
2024-05-09T15:23:06.786Z,1.83
2024-05-09T15:25:35.171Z,1.83
2024-05-09T15:28:02.477Z,1.50
2024-05-09T15:30:32.321Z,1.80
2024-05-09T15:33:04.038Z,1.50
2024-05-09T15:35:31.601Z,1.30
2024-05-09T15:37:58.572Z,2.10
2024-05-09T15:40:35.531Z,1.80
2024-05-09T15:43:07.475Z,1.50
2024-05-09T15:45:35.258Z,1.65
2024-05-09T15:48:03.538Z,1.48
2024-05-09T15:50:37.641Z,1.70
2024-05-09T15:53:08.960Z,1.80
2024-05-09T15:55:36.977Z,1.80
2024-05-09T15:58:04.933Z,1.50
2024-05-09T16:00:38.234Z,1.67
2024-05-09T16:03:13.886Z,1.85
2024-05-09T16:05:44.141Z,1.67
2024-05-09T16:08:12.775Z,1.70
2024-05-09T16:10:44.361Z,1.88
2024-05-09T16:15:39.735Z,1.70
2024-05-09T16:18:07.228Z,2.38
2024-05-09T16:20:39.616Z,1.85
2024-05-09T16:23:09.223Z,1.83
2024-05-09T16:25:36.761Z,1.67
2024-05-09T16:28:10.000Z,1.85
2024-05-09T16:30:41.138Z,1.70
2024-05-09T16:33:09.115Z,1.90
2024-05-09T16:35:37.186Z,1.77
2024-05-09T16:38:04.828Z,1.73
2024-05-09T16:40:38.258Z,1.85
2024-05-09T16:43:12.132Z,1.88
2024-05-09T16:45:41.143Z,1.73
2024-05-09T16:48:08.978Z,1.70
2024-05-09T16:50:36.802Z,1.80
2024-05-09T16:53:05.821Z,1.90
2024-05-09T16:55:33.485Z,1.83
2024-05-09T16:58:01.219Z,1.90
2024-05-09T17:00:39.368Z,1.75
2024-05-09T17:03:11.772Z,1.67
2024-05-09T17:05:40.283Z,1.80
2024-05-09T17:08:09.705Z,1.70
2024-05-09T17:10:37.100Z,1.80
2024-05-09T17:13:06.181Z,1.80
2024-05-09T17:15:34.962Z,1.60
2024-05-09T17:18:02.642Z,1.67
2024-05-09T17:20:34.057Z,1.73
2024-05-09T17:23:06.863Z,1.58
2024-05-09T17:25:34.334Z,1.98
2024-05-09T17:28:07.621Z,1.90
2024-05-09T17:30:37.954Z,1.70
2024-05-09T17:33:08.663Z,1.70
2024-05-09T17:35:36.900Z,2.03
2024-05-09T17:38:05.863Z,1.60
2024-05-09T17:40:35.731Z,1.75
2024-05-09T17:43:05.562Z,2.30
2024-05-09T17:45:33.606Z,1.58
2024-05-09T17:48:01.315Z,1.80
2024-05-09T17:50:35.116Z,2.30
2024-05-09T17:53:07.216Z,1.80
2024-05-09T17:55:34.960Z,1.80
2024-05-09T17:58:02.406Z,1.75
2024-05-09T18:00:37.403Z,1.60
2024-05-09T18:03:08.641Z,1.92
2024-05-09T18:05:37.059Z,1.70
2024-05-09T18:08:08.734Z,1.65
2024-05-09T18:10:38.870Z,1.88
2024-05-09T18:13:08.438Z,1.45
2024-05-09T18:15:36.010Z,1.90
2024-05-09T18:18:03.840Z,1.90
2024-05-09T18:20:40.900Z,1.83
2024-05-09T18:23:13.538Z,1.77
2024-05-09T18:25:41.021Z,2.05
2024-05-09T18:28:08.389Z,1.70
2024-05-09T18:30:36.887Z,1.88
2024-05-09T18:33:07.166Z,1.92
2024-05-09T18:35:35.596Z,1.88
2024-05-09T18:38:03.351Z,2.13
2024-05-09T18:40:34.624Z,2.50
2024-05-09T18:43:08.731Z,2.38
2024-05-09T18:45:37.866Z,2.45
2024-05-09T18:48:06.499Z,1.85
2024-05-09T18:50:37.816Z,2.00
2024-05-09T18:53:07.579Z,2.20
2024-05-09T18:55:34.990Z,2.10
2024-05-09T18:58:02.472Z,1.95
2024-05-09T19:00:35.532Z,1.90
2024-05-09T19:03:10.113Z,2.10
2024-05-09T19:05:40.063Z,2.13
2024-05-09T19:08:07.952Z,1.98
2024-05-09T19:10:37.348Z,2.10
2024-05-09T19:13:09.058Z,2.50
2024-05-09T19:15:39.695Z,2.35
2024-05-09T19:18:07.472Z,2.10
2024-05-09T19:20:36.238Z,2.70
2024-05-09T19:23:06.184Z,2.90
2024-05-09T19:25:34.610Z,3.10
2024-05-09T19:28:01.813Z,2.95
2024-05-09T19:30:37.332Z,2.40
2024-05-09T19:33:08.910Z,2.50
2024-05-09T19:35:36.157Z,2.50
2024-05-09T19:38:03.184Z,2.10
2024-05-09T19:40:32.468Z,2.50
2024-05-09T19:43:02.619Z,2.30
2024-05-09T19:45:30.636Z,2.38
2024-05-09T19:47:57.832Z,2.90
2024-05-09T19:50:32.587Z,2.45
2024-05-09T19:53:07.816Z,2.80
2024-05-09T19:55:35.160Z,2.70
2024-05-09T19:58:08.413Z,3.10
2024-05-09T20:00:38.629Z,3.35
2024-05-09T20:03:08.264Z,3.08
2024-05-09T20:05:36.047Z,3.00
2024-05-09T20:08:03.459Z,3.10
2024-05-09T20:10:33.276Z,3.38
2024-05-09T20:13:02.880Z,3.40
2024-05-09T20:15:30.234Z,3.13
2024-05-09T20:17:57.220Z,3.22
2024-05-09T20:20:33.034Z,3.30
2024-05-09T20:23:06.149Z,3.35
2024-05-09T20:25:33.144Z,3.20
2024-05-09T20:28:00.312Z,3.40
2024-05-09T20:30:32.152Z,3.00
2024-05-09T20:33:03.055Z,3.58
2024-05-09T20:35:34.940Z,3.58
2024-05-09T20:38:03.327Z,3.30
2024-05-09T20:40:37.762Z,3.30
2024-05-09T20:43:08.046Z,3.65
2024-05-09T20:45:35.505Z,3.50
2024-05-09T20:48:02.868Z,3.45
2024-05-09T20:50:37.328Z,3.63
2024-05-09T20:53:16.747Z,3.78
2024-05-09T20:55:44.895Z,3.40
2024-05-09T20:58:12.569Z,3.65
2024-05-09T21:00:43.264Z,3.20
2024-05-09T21:03:14.645Z,3.15
2024-05-09T21:05:43.134Z,3.30
2024-05-09T21:08:10.283Z,3.20
2024-05-09T21:10:37.861Z,3.35
2024-05-09T21:13:06.842Z,3.17
2024-05-09T21:15:34.931Z,3.15
2024-05-09T21:18:02.382Z,3.42
2024-05-09T21:20:32.783Z,2.85
2024-05-09T21:23:01.940Z,3.38
2024-05-09T21:25:29.437Z,3.20
2024-05-09T21:27:56.427Z,3.30
2024-05-09T21:30:32.557Z,3.50
2024-05-09T21:33:13.595Z,3.67
2024-05-09T21:35:48.840Z,3.28
2024-05-09T21:38:15.919Z,3.30
2024-05-09T21:40:43.621Z,3.35
2024-05-09T21:43:10.717Z,3.30
2024-05-09T21:45:37.882Z,3.50
2024-05-09T21:48:06.318Z,3.65
2024-05-09T21:50:39.804Z,3.83
2024-05-09T21:53:09.787Z,4.10
2024-05-09T21:55:36.795Z,4.13
2024-05-09T21:58:04.255Z,3.90
2024-05-09T22:03:43.705Z,3.70
2024-05-09T22:06:10.790Z,3.65
2024-05-09T22:08:37.859Z,3.58
2024-05-09T22:11:05.135Z,4.30
2024-05-09T22:13:32.201Z,3.80
2024-05-09T22:15:59.214Z,3.42
2024-05-09T22:18:26.297Z,3.70
2024-05-09T22:20:53.979Z,3.75
2024-05-09T22:23:21.642Z,3.63
2024-05-09T22:25:48.517Z,3.80
2024-05-09T22:28:16.197Z,3.97
2024-05-09T22:30:45.980Z,4.03
2024-05-09T22:33:13.479Z,4.10
2024-05-09T22:35:41.094Z,3.70
2024-05-09T22:38:08.585Z,3.40
2024-05-09T22:40:46.582Z,3.85
2024-05-09T22:43:21.483Z,3.95
2024-05-09T22:45:50.561Z,3.33
2024-05-09T22:48:18.100Z,3.28
2024-05-09T22:50:45.222Z,3.50
2024-05-09T22:53:12.105Z,3.92
2024-05-09T22:55:39.002Z,3.83
2024-05-09T22:58:06.145Z,3.78
2024-05-09T23:00:33.722Z,3.40
2024-05-09T23:03:01.824Z,3.88
2024-05-09T23:05:29.374Z,3.60
2024-05-09T23:07:56.866Z,3.70
2024-05-09T23:10:31.921Z,3.80
2024-05-09T23:13:03.665Z,3.45
2024-05-09T23:15:31.183Z,3.60
2024-05-09T23:17:58.691Z,3.38
2024-05-09T23:20:33.464Z,3.90
2024-05-09T23:23:05.953Z,4.00
2024-05-09T23:25:32.850Z,3.45
2024-05-09T23:27:59.837Z,3.60
2024-05-09T23:30:37.182Z,3.50
2024-05-09T23:33:07.847Z,3.83
2024-05-09T23:35:35.010Z,3.67
2024-05-09T23:38:02.028Z,3.85
2024-05-09T23:42:58.755Z,3.30
2024-05-09T23:45:25.729Z,3.60
2024-05-09T23:47:53.571Z,3.40
2024-05-09T23:50:26.522Z,3.53
2024-05-09T23:53:00.265Z,3.28
2024-05-09T23:55:28.158Z,3.85
2024-05-09T23:57:55.630Z,3.97
